createdAt,value
2022-08-13T00:00:37.284Z,43.93
2022-08-13T00:04:00.651Z,44.55
2022-08-13T00:06:21.609Z,44.68
2022-08-13T00:08:50.298Z,44.54
2022-08-13T00:11:59.908Z,44.51
2022-08-13T00:14:36.148Z,44.68
2022-08-13T00:17:08.486Z,45.31
2022-08-13T00:19:39.926Z,45.61
2022-08-13T00:22:28.004Z,45.97
2022-08-13T00:24:59.214Z,46.01
2022-08-13T00:27:27.898Z,45.83
2022-08-13T00:30:15.802Z,46.05
2022-08-13T00:32:45.641Z,45.70
2022-08-13T00:35:17.668Z,45.67
2022-08-13T00:37:53.160Z,45.80
2022-08-13T00:40:31.301Z,45.72
2022-08-13T00:43:05.533Z,45.83
2022-08-13T00:45:34.985Z,45.94
2022-08-13T00:48:21.197Z,45.79
2022-08-13T00:50:51.170Z,45.72
2022-08-13T00:53:23.957Z,45.99
2022-08-13T00:55:57.288Z,46.32
2022-08-13T00:58:28.595Z,46.93
2022-08-13T01:01:00.290Z,47.20
2022-08-13T01:03:56.562Z,47.34
2022-08-13T01:06:19.742Z,47.32
2022-08-13T01:08:54.596Z,47.77
2022-08-13T01:11:23.908Z,47.20
2022-08-13T01:13:52.898Z,47.32
2022-08-13T01:16:23.607Z,47.13
2022-08-13T01:18:53.115Z,47.01
2022-08-13T01:21:39.840Z,47.10
2022-08-13T01:24:13.603Z,47.01
2022-08-13T01:26:47.251Z,47.06
2022-08-13T01:29:17.428Z,47.08
2022-08-13T01:31:45.566Z,47.30
2022-08-13T01:34:24.695Z,47.40
2022-08-13T01:36:57.012Z,47.15
2022-08-13T01:39:29.239Z,47.34
2022-08-13T01:42:03.651Z,47.17
2022-08-13T01:44:34.015Z,47.47
2022-08-13T01:47:25.662Z,47.36
2022-08-13T01:50:28.964Z,47.90
2022-08-13T01:53:04.887Z,47.85
2022-08-13T01:56:05.681Z,47.96
2022-08-13T01:58:30.686Z,48.13
2022-08-13T02:01:09.765Z,48.26
2022-08-13T02:03:38.148Z,48.96
2022-08-13T02:06:20.448Z,48.99
2022-08-13T02:08:51.895Z,49.00
2022-08-13T02:11:20.343Z,48.85
2022-08-13T02:13:54.404Z,49.18
2022-08-13T02:16:22.963Z,48.93
2022-08-13T02:18:53.620Z,49.13
2022-08-13T02:21:23.733Z,49.06
2022-08-13T02:24:02.559Z,48.96
2022-08-13T02:26:30.996Z,49.23
2022-08-13T02:29:02.812Z,49.26
2022-08-13T02:32:05.175Z,49.17
2022-08-13T02:34:20.438Z,49.19
2022-08-13T02:37:01.153Z,49.17
2022-08-13T02:39:43.174Z,49.17
2022-08-13T02:42:15.953Z,49.33
2022-08-13T02:44:48.543Z,49.29
2022-08-13T02:47:17.808Z,49.31
2022-08-13T02:49:46.885Z,49.18
2022-08-13T02:52:15.963Z,49.38
2022-08-13T02:54:54.347Z,49.44
2022-08-13T02:57:23.591Z,49.65
2022-08-13T03:00:05.729Z,49.47
2022-08-13T03:02:46.630Z,50.01
2022-08-13T03:05:20.011Z,49.82
2022-08-13T03:07:53.336Z,49.88
2022-08-13T03:10:40.072Z,49.93
2022-08-13T03:13:29.765Z,49.96
2022-08-13T03:16:18.586Z,50.42
2022-08-13T03:18:53.098Z,50.53
2022-08-13T03:21:42.284Z,50.52
2022-08-13T03:24:21.695Z,50.71
2022-08-13T03:26:58.103Z,50.78
2022-08-13T03:29:57.973Z,50.62
2022-08-13T03:32:14.688Z,50.95
2022-08-13T03:34:44.307Z,51.15
2022-08-13T03:37:13.467Z,50.71
2022-08-13T03:39:42.255Z,51.03
2022-08-13T03:42:12.291Z,51.38
2022-08-13T03:44:41.516Z,51.30
2022-08-13T03:47:30.399Z,51.18
2022-08-13T03:49:56.160Z,51.10
2022-08-13T03:52:33.231Z,50.99
2022-08-13T03:55:10.503Z,51.47
2022-08-13T03:58:02.649Z,51.48
2022-08-13T04:00:30.894Z,50.92
2022-08-13T04:02:59.413Z,51.04
2022-08-13T04:05:38.410Z,50.72
2022-08-13T04:08:14.925Z,51.07
2022-08-13T04:10:51.091Z,51.38
2022-08-13T04:14:01.061Z,51.27
2022-08-13T04:16:13.544Z,51.12
2022-08-13T04:18:43.215Z,51.11
2022-08-13T04:21:22.178Z,51.46
2022-08-13T04:23:55.626Z,51.26
2022-08-13T04:26:30.676Z,51.31
2022-08-13T04:29:07.016Z,51.26
2022-08-13T04:31:47.613Z,50.99
2022-08-13T04:34:33.702Z,51.30
2022-08-13T04:37:21.490Z,50.95
2022-08-13T04:40:06.123Z,51.09
2022-08-13T04:42:50.630Z,51.40
2022-08-13T04:45:23.575Z,51.23
2022-08-13T04:47:52.705Z,51.50
2022-08-13T04:50:21.539Z,51.55
2022-08-13T04:52:49.510Z,51.71
2022-08-13T04:55:18.333Z,51.12
2022-08-13T04:57:54.987Z,51.22
2022-08-13T05:00:35.716Z,51.08
2022-08-13T05:03:10.909Z,51.18
2022-08-13T05:05:42.114Z,50.97
2022-08-13T05:08:12.147Z,50.77
2022-08-13T05:10:43.786Z,50.90
2022-08-13T05:13:43.186Z,50.92
2022-08-13T05:16:14.664Z,51.29
2022-08-13T05:18:45.365Z,51.64
2022-08-13T05:21:18.831Z,51.64
2022-08-13T05:26:09.194Z,51.81
2022-08-13T05:26:57.601Z,52.02
2022-08-13T05:31:57.056Z,52.43
2022-08-13T05:34:28.881Z,52.49
2022-08-13T05:38:14.980Z,52.07
2022-08-13T05:39:48.588Z,51.83
2022-08-13T05:42:26.290Z,51.58
2022-08-13T05:44:57.014Z,51.18
2022-08-13T05:47:25.567Z,51.17
2022-08-13T05:49:58.643Z,51.28
2022-08-13T05:52:43.719Z,51.12
2022-08-13T05:56:13.480Z,51.22
2022-08-13T05:58:12.411Z,51.42
2022-08-13T06:01:12.636Z,51.49
2022-08-13T06:04:31.072Z,51.52
2022-08-13T06:06:34.712Z,52.27
2022-08-13T06:09:09.239Z,52.07
2022-08-13T06:12:08.278Z,52.45
2022-08-13T06:14:32.739Z,52.33
2022-08-13T06:17:02.108Z,52.24
2022-08-13T06:19:34.115Z,52.08
2022-08-13T06:22:05.303Z,52.27
2022-08-13T06:24:45.368Z,52.65
2022-08-13T06:27:56.574Z,53.16
2022-08-13T06:30:12.866Z,53.48
2022-08-13T06:33:58.830Z,53.78
2022-08-13T06:35:45.058Z,54.01
2022-08-13T06:38:21.193Z,54.01
2022-08-13T06:40:50.413Z,54.31
2022-08-13T06:43:20.776Z,54.46
2022-08-13T06:45:50.682Z,54.39
2022-08-13T06:48:34.038Z,54.14
2022-08-13T06:51:07.697Z,53.96
2022-08-13T06:54:23.455Z,54.30
2022-08-13T06:56:35.900Z,53.98
2022-08-13T06:59:13.339Z,54.06
2022-08-13T07:02:05.207Z,53.09
2022-08-13T07:04:38.023Z,53.06
2022-08-13T07:07:05.791Z,52.46
2022-08-13T07:09:42.052Z,51.81
2022-08-13T07:12:14.022Z,52.22
2022-08-13T07:14:47.437Z,52.37
2022-08-13T07:17:18.342Z,51.74
2022-08-13T07:20:05.245Z,52.39
2022-08-13T07:24:49.948Z,51.83
2022-08-13T07:25:57.684Z,52.03
2022-08-13T07:28:26.241Z,51.94
2022-08-13T07:31:11.038Z,51.24
2022-08-13T07:33:55.053Z,51.11
2022-08-13T07:36:29.093Z,50.92
2022-08-13T07:38:59.095Z,50.32
2022-08-13T07:41:28.182Z,50.63
2022-08-13T07:44:02.551Z,50.19
2022-08-13T07:46:43.408Z,50.13
2022-08-13T07:49:20.127Z,50.26
2022-08-13T07:51:50.317Z,50.60
2022-08-13T07:54:18.908Z,49.82
2022-08-13T07:56:50.217Z,50.13
2022-08-13T07:59:24.605Z,49.92
2022-08-13T08:02:22.365Z,49.67
2022-08-13T08:04:54.418Z,49.98
2022-08-13T08:07:24.344Z,49.75
2022-08-13T08:09:58.947Z,49.43
2022-08-13T08:12:34.513Z,49.92
2022-08-13T08:15:15.115Z,49.71
2022-08-13T08:18:15.809Z,49.72
2022-08-13T08:20:38.659Z,49.42
2022-08-13T08:23:49.271Z,49.67
2022-08-13T08:26:17.280Z,48.55
2022-08-13T08:28:47.554Z,48.86
2022-08-13T08:31:21.410Z,48.20
2022-08-13T08:33:58.651Z,48.50
2022-08-13T08:36:35.330Z,48.04
2022-08-13T08:39:38.576Z,48.06
2022-08-13T08:42:36.384Z,47.26
2022-08-13T08:45:16.062Z,46.68
2022-08-13T08:47:47.369Z,46.75
2022-08-13T08:50:26.738Z,46.13
2022-08-13T08:54:01.375Z,45.46
2022-08-13T08:56:09.275Z,45.50
2022-08-13T08:58:42.358Z,44.87
2022-08-13T09:01:13.489Z,45.04
2022-08-13T09:03:50.121Z,44.45
2022-08-13T09:06:53.064Z,43.93
2022-08-13T09:09:20.033Z,43.34
2022-08-13T09:11:55.497Z,43.48
2022-08-13T09:14:32.278Z,43.54
2022-08-13T09:17:04.342Z,42.88
2022-08-13T09:19:46.054Z,43.26
2022-08-13T09:22:17.824Z,43.46
2022-08-13T09:24:48.533Z,42.59
2022-08-13T09:27:19.821Z,42.88
2022-08-13T09:29:57.849Z,41.62
2022-08-13T09:32:31.729Z,40.58
2022-08-13T09:34:59.769Z,40.36
2022-08-13T09:37:28.443Z,40.69
2022-08-13T09:40:18.166Z,39.85
2022-08-13T09:43:13.326Z,40.18
2022-08-13T09:45:44.188Z,40.84
2022-08-13T09:48:46.113Z,39.50
2022-08-13T09:51:03.952Z,39.14
2022-08-13T09:53:34.422Z,39.15
2022-08-13T09:56:04.502Z,38.02
2022-08-13T09:58:35.056Z,37.54
2022-08-13T10:01:14.030Z,37.16
2022-08-13T10:03:43.244Z,36.67
2022-08-13T10:06:13.617Z,37.69
2022-08-13T10:08:43.290Z,36.87
2022-08-13T10:11:10.937Z,36.60
2022-08-13T10:13:51.320Z,36.74
2022-08-13T10:16:18.582Z,37.19
2022-08-13T10:18:47.421Z,36.95
2022-08-13T10:21:21.168Z,37.20
2022-08-13T10:23:49.149Z,36.89
2022-08-13T10:26:19.394Z,37.08
2022-08-13T10:28:48.674Z,37.30
2022-08-13T10:31:50.539Z,36.80
2022-08-13T10:34:06.486Z,36.09
2022-08-13T10:36:37.262Z,35.81
2022-08-13T10:39:09.892Z,36.04
2022-08-13T10:41:44.682Z,35.42
2022-08-13T10:44:31.902Z,35.53
2022-08-13T10:47:01.209Z,35.54
2022-08-13T10:49:33.157Z,36.17
2022-08-13T10:52:01.690Z,36.07
2022-08-13T10:54:33.528Z,35.32
2022-08-13T10:57:06.290Z,34.26
2022-08-13T10:59:36.251Z,35.21
2022-08-13T11:02:07.733Z,35.60
2022-08-13T11:04:38.554Z,34.20
2022-08-13T11:07:19.874Z,34.70
2022-08-13T11:09:50.675Z,34.20
2022-08-13T11:12:22.194Z,34.19
2022-08-13T11:14:50.874Z,34.25
2022-08-13T11:17:35.497Z,33.32
2022-08-13T11:20:18.487Z,34.05
2022-08-13T11:22:54.764Z,33.98
2022-08-13T11:25:55.566Z,34.62
2022-08-13T11:28:18.755Z,33.77
2022-08-13T11:30:49.528Z,33.26
2022-08-13T11:33:17.227Z,33.63
2022-08-13T11:35:47.864Z,33.06
2022-08-13T11:38:19.500Z,33.31
2022-08-13T11:40:57.598Z,33.06
2022-08-13T11:43:52.117Z,32.80
2022-08-13T11:46:20.450Z,32.77
2022-08-13T11:48:53.908Z,32.11
2022-08-13T11:51:49.221Z,32.01
2022-08-13T11:54:32.894Z,31.98
2022-08-13T11:57:03.053Z,32.83
2022-08-13T11:59:40.499Z,31.86
2022-08-13T12:02:14.646Z,32.47
2022-08-13T12:04:49.497Z,31.61
2022-08-13T12:07:26.180Z,31.42
2022-08-13T12:09:58.643Z,32.24
2022-08-13T12:12:29.249Z,31.90
2022-08-13T12:14:59.390Z,31.35
2022-08-13T12:17:50.425Z,31.84
2022-08-13T12:20:24.426Z,31.44
2022-08-13T12:23:01.602Z,31.37
2022-08-13T12:26:04.475Z,30.59
2022-08-13T12:28:27.952Z,30.27
2022-08-13T12:31:01.984Z,29.66
2022-08-13T12:33:39.718Z,30.53
2022-08-13T12:36:16.571Z,30.34
2022-08-13T12:38:58.711Z,30.27
2022-08-13T12:41:38.879Z,30.96
2022-08-13T12:45:05.170Z,31.03
2022-08-13T12:47:03.630Z,31.80
2022-08-13T12:50:00.786Z,31.44
2022-08-13T12:52:18.482Z,31.84
2022-08-13T12:55:03.133Z,32.10
2022-08-13T12:58:03.476Z,32.55
2022-08-13T13:00:32.787Z,31.95
2022-08-13T13:03:06.542Z,31.78
2022-08-13T13:05:39.390Z,31.85
2022-08-13T13:08:25.636Z,31.84
2022-08-13T13:11:12.463Z,31.13
2022-08-13T13:13:59.844Z,31.34
2022-08-13T13:16:38.094Z,31.47
2022-08-13T13:19:16.128Z,31.51
2022-08-13T13:21:49.901Z,31.80
2022-08-13T13:24:23.601Z,31.53
2022-08-13T13:27:00.396Z,31.40
2022-08-13T13:29:37.451Z,31.26
2022-08-13T13:32:40.426Z,31.42
2022-08-13T13:34:56.571Z,31.38
2022-08-13T13:37:24.083Z,31.38
2022-08-13T13:39:56.960Z,30.73
2022-08-13T13:42:29.482Z,30.99
2022-08-13T13:44:58.374Z,31.15
2022-08-13T13:47:26.777Z,31.89
2022-08-13T13:49:54.308Z,31.40
2022-08-13T13:52:21.535Z,31.86
2022-08-13T13:54:56.813Z,31.82
2022-08-13T13:57:38.344Z,30.70
2022-08-13T14:00:09.529Z,31.66
2022-08-13T14:02:40.162Z,31.02
2022-08-13T14:05:19.211Z,31.85
2022-08-13T14:07:57.710Z,31.21
2022-08-13T14:10:28.162Z,32.23
2022-08-13T14:13:17.838Z,31.58
2022-08-13T14:15:43.686Z,31.77
2022-08-13T14:18:24.509Z,32.45
2022-08-13T14:20:57.070Z,32.48
2022-08-13T14:23:38.890Z,31.83
2022-08-13T14:26:09.764Z,32.62
2022-08-13T14:28:45.599Z,32.72
2022-08-13T14:31:14.005Z,32.63
2022-08-13T14:34:00.875Z,31.79
2022-08-13T14:36:32.267Z,31.15
2022-08-13T14:39:20.804Z,31.95
2022-08-13T14:41:50.301Z,31.42
2022-08-13T14:44:51.679Z,31.85
2022-08-13T14:47:08.861Z,31.99
2022-08-13T14:49:56.513Z,32.69
2022-08-13T14:52:37.774Z,32.98
2022-08-13T14:55:08.902Z,31.93
2022-08-13T14:57:40.319Z,32.17
2022-08-13T15:00:19.843Z,31.95
2022-08-13T15:03:11.961Z,31.60
2022-08-13T15:05:53.106Z,31.62
2022-08-13T15:08:31.614Z,32.30
2022-08-13T15:11:06.481Z,32.84
2022-08-13T15:13:55.232Z,32.66
2022-08-13T15:16:30.631Z,33.38
2022-08-13T15:19:02.897Z,32.87
2022-08-13T15:21:48.170Z,33.13
2022-08-13T15:24:36.205Z,33.62
2022-08-13T15:27:26.503Z,33.27
2022-08-13T15:29:55.625Z,32.54
2022-08-13T15:32:24.384Z,32.46
2022-08-13T15:35:01.629Z,33.14
2022-08-13T15:37:43.294Z,32.69
2022-08-13T15:40:31.454Z,32.81
2022-08-13T15:43:09.577Z,32.73
2022-08-13T15:45:41.531Z,32.60
2022-08-13T15:48:18.501Z,33.30
2022-08-13T15:50:55.269Z,32.81
2022-08-13T15:53:27.464Z,32.97
2022-08-13T15:55:57.193Z,33.68
2022-08-13T15:58:31.873Z,33.90
2022-08-13T16:01:21.184Z,33.40
2022-08-13T16:03:56.033Z,32.90
2022-08-13T16:06:29.873Z,33.41
2022-08-13T16:09:03.763Z,33.66
2022-08-13T16:11:45.692Z,33.23
2022-08-13T16:14:18.628Z,33.73
2022-08-13T16:16:55.743Z,33.97
2022-08-13T16:19:51.346Z,33.88
2022-08-13T16:22:18.645Z,33.48
2022-08-13T16:24:50.762Z,34.29
2022-08-13T16:27:24.337Z,34.31
2022-08-13T16:29:57.566Z,33.72
2022-08-13T16:32:28.893Z,33.54
2022-08-13T16:35:16.153Z,34.56
2022-08-13T16:37:57.115Z,35.16
2022-08-13T16:40:36.544Z,34.75
2022-08-13T16:43:10.140Z,34.96
2022-08-13T16:45:44.857Z,34.88
2022-08-13T16:48:14.669Z,35.60
2022-08-13T16:50:47.589Z,35.58
2022-08-13T16:53:23.715Z,35.08
2022-08-13T16:56:03.619Z,35.64
2022-08-13T16:58:30.561Z,35.46
2022-08-13T17:00:58.386Z,35.72
2022-08-13T17:04:02.170Z,35.77
2022-08-13T17:06:53.130Z,35.52
2022-08-13T17:09:36.278Z,36.15
2022-08-13T17:12:07.606Z,35.91
2022-08-13T17:14:38.474Z,36.11
2022-08-13T17:17:14.156Z,36.69
2022-08-13T17:19:56.589Z,36.21
2022-08-13T17:22:27.117Z,36.00
2022-08-13T17:24:58.139Z,35.79
2022-08-13T17:27:25.224Z,35.97
2022-08-13T17:30:01.845Z,35.51
2022-08-13T17:32:33.551Z,36.08
2022-08-13T17:35:03.356Z,36.07
2022-08-13T17:37:36.390Z,36.49
2022-08-13T17:40:20.018Z,36.96
2022-08-13T17:43:58.638Z,37.31
2022-08-13T17:45:41.165Z,37.28
2022-08-13T17:48:11.325Z,37.34
2022-08-13T17:50:50.315Z,37.56
2022-08-13T17:53:20.772Z,37.89
2022-08-13T17:55:51.060Z,38.30
2022-08-13T17:58:34.345Z,38.72
2022-08-13T18:01:22.802Z,39.15
2022-08-13T18:03:58.377Z,39.30
2022-08-13T18:06:31.524Z,39.61
2022-08-13T18:09:12.760Z,39.61
2022-08-13T18:11:45.121Z,39.74
2022-08-13T18:14:21.536Z,40.24
2022-08-13T18:17:17.384Z,40.34
2022-08-13T18:19:53.216Z,40.43
2022-08-13T18:22:26.625Z,40.65
2022-08-13T18:25:00.933Z,41.18
2022-08-13T18:28:06.586Z,41.23
2022-08-13T18:30:29.785Z,41.20
2022-08-13T18:33:11.642Z,41.35
2022-08-13T18:35:58.446Z,41.58
2022-08-13T18:38:34.589Z,41.76
2022-08-13T18:41:05.752Z,41.79
2022-08-13T18:43:34.861Z,41.86
2022-08-13T18:46:02.922Z,42.33
2022-08-13T18:48:34.460Z,41.91
2022-08-13T18:51:19.837Z,42.50
2022-08-13T18:53:55.524Z,42.51
2022-08-13T18:56:24.784Z,42.12
2022-08-13T18:58:53.390Z,42.60
2022-08-13T19:01:22.203Z,42.46
2022-08-13T19:03:58.645Z,43.14
2022-08-13T19:06:33.162Z,42.67
2022-08-13T19:09:07.505Z,43.37
2022-08-13T19:11:45.613Z,42.92
2022-08-13T19:14:21.050Z,43.11
2022-08-13T19:16:57.765Z,43.35
2022-08-13T19:19:55.765Z,43.43
2022-08-13T19:22:19.914Z,43.94
2022-08-13T19:24:51.772Z,43.80
2022-08-13T19:27:20.743Z,44.06
2022-08-13T19:30:01.634Z,43.35
2022-08-13T19:32:29.347Z,43.63
2022-08-13T19:34:58.484Z,42.98
2022-08-13T19:37:26.491Z,43.45
2022-08-13T19:39:58.932Z,43.37
2022-08-13T19:42:55.184Z,43.32
2022-08-13T19:45:24.467Z,43.57
2022-08-13T19:48:00.032Z,43.48
2022-08-13T19:50:35.036Z,43.54
2022-08-13T19:53:06.237Z,43.57
2022-08-13T19:55:52.855Z,44.41
2022-08-13T19:58:22.604Z,43.78
2022-08-13T20:00:53.269Z,44.28
2022-08-13T20:03:25.517Z,44.09
2022-08-13T20:05:55.275Z,44.40
2022-08-13T20:08:34.712Z,44.84
2022-08-13T20:11:23.182Z,45.39
2022-08-13T20:13:55.945Z,45.35
2022-08-13T20:16:29.001Z,45.63
2022-08-13T20:18:58.165Z,45.26
2022-08-13T20:21:43.957Z,45.67
2022-08-13T20:25:44.534Z,45.47
2022-08-13T20:27:42.744Z,45.19
2022-08-13T20:29:58.537Z,45.78
2022-08-13T20:32:32.405Z,45.63
2022-08-13T20:35:07.962Z,45.55
2022-08-13T20:37:48.140Z,45.72
2022-08-13T20:40:29.057Z,45.75
2022-08-13T20:42:59.333Z,45.89
2022-08-13T20:45:43.104Z,46.26
2022-08-13T20:48:13.351Z,46.60
2022-08-13T20:50:41.173Z,46.42
2022-08-13T20:53:17.520Z,46.48
2022-08-13T20:55:44.710Z,47.02
2022-08-13T21:00:48.608Z,46.98
2022-08-13T21:00:59.522Z,46.39
2022-08-13T21:03:28.357Z,47.36
2022-08-13T21:06:01.643Z,47.07
2022-08-13T21:08:29.894Z,47.46
2022-08-13T21:10:56.841Z,48.01
2022-08-13T21:13:31.048Z,48.11
2022-08-13T21:16:18.162Z,48.45
2022-08-13T21:18:49.727Z,48.87
2022-08-13T21:21:22.761Z,48.68
2022-08-13T21:23:55.184Z,48.29
2022-08-13T21:26:22.530Z,48.22
2022-08-13T21:29:33.883Z,47.74
2022-08-13T21:32:00.939Z,47.77
2022-08-13T21:34:31.652Z,48.10
2022-08-13T21:37:02.391Z,47.97
2022-08-13T21:39:30.133Z,47.70
2022-08-13T21:42:03.532Z,48.20
2022-08-13T21:44:30.808Z,47.61
2022-08-13T21:46:58.744Z,48.28
2022-08-13T21:49:43.766Z,47.75
2022-08-13T21:52:13.713Z,48.37
2022-08-13T21:54:51.392Z,48.10
2022-08-13T21:57:21.223Z,48.04
2022-08-13T21:59:52.127Z,48.06
2022-08-13T22:02:33.831Z,48.80
2022-08-13T22:05:03.732Z,48.94
2022-08-13T22:07:55.615Z,49.49
2022-08-13T22:10:19.415Z,49.51
2022-08-13T22:12:56.574Z,49.69
2022-08-13T22:15:33.635Z,50.09
2022-08-13T22:18:04.076Z,50.08
2022-08-13T22:20:38.203Z,50.06
2022-08-13T22:23:11.181Z,50.52
2022-08-13T22:25:39.364Z,50.90
2022-08-13T22:28:27.893Z,50.25
2022-08-13T22:30:58.696Z,50.36
2022-08-13T22:33:28.213Z,50.75
2022-08-13T22:36:15.893Z,50.61
2022-08-13T22:38:43.972Z,51.41
2022-08-13T22:41:16.614Z,51.00
2022-08-13T22:43:46.864Z,51.59
2022-08-13T22:46:16.760Z,51.21
2022-08-13T22:48:45.817Z,51.80
2022-08-13T22:51:14.084Z,51.92
2022-08-13T22:53:42.608Z,52.94
2022-08-13T22:56:12.966Z,52.78
2022-08-13T22:58:42.223Z,53.33
2022-08-13T23:01:10.761Z,53.22
2022-08-13T23:03:39.141Z,53.55
2022-08-13T23:06:35.535Z,53.31
2022-08-13T23:08:56.161Z,53.57
2022-08-13T23:11:27.358Z,53.77
2022-08-13T23:13:55.840Z,53.69
2022-08-13T23:16:24.951Z,53.68
2022-08-13T23:18:55.342Z,53.74
2022-08-13T23:21:24.178Z,54.22
2022-08-13T23:23:52.967Z,54.88
2022-08-13T23:26:24.440Z,55.10
2022-08-13T23:29:00.413Z,55.14
2022-08-13T23:31:29.472Z,54.95
2022-08-13T23:34:01.890Z,54.67
2022-08-13T23:36:36.392Z,54.71
2022-08-13T23:39:07.001Z,54.63
2022-08-13T23:41:35.918Z,54.60
2022-08-13T23:44:09.996Z,54.51
2022-08-13T23:46:45.946Z,54.28
2022-08-13T23:49:18.995Z,54.29
2022-08-13T23:51:53.372Z,54.02
2022-08-13T23:54:22.556Z,54.65
2022-08-13T23:56:54.053Z,55.26
2022-08-13T23:59:27.323Z,55.22
